sensor_id;sensor_type;location;lat;lon;timestamp;pressure;altitude;pressure_sealevel;temperature;humidity
49999;BME280;68071;45.062;7.356;2023-08-20T00:03:08;95583.28;;;21.02;100.00
49999;BME280;68071;45.062;7.356;2023-08-20T00:06:14;95578.91;;;21.38;100.00
49999;BME280;68071;45.062;7.356;2023-08-20T00:09:18;95575.31;;;21.00;100.00
49999;BME280;68071;45.062;7.356;2023-08-20T00:12:22;95580.44;;;20.83;100.00
49999;BME280;68071;45.062;7.356;2023-08-20T00:15:26;95585.00;;;21.09;100.00
49999;BME280;68071;45.062;7.356;2023-08-20T00:18:31;95575.63;;;21.12;100.00
49999;BME280;68071;45.062;7.356;2023-08-20T00:21:35;95586.72;;;21.06;100.00
49999;BME280;68071;45.062;7.356;2023-08-20T00:24:43;95575.91;;;20.86;100.00
49999;BME280;68071;45.062;7.356;2023-08-20T00:27:47;95577.97;;;21.23;100.00
49999;BME280;68071;45.062;7.356;2023-08-20T00:30:51;95580.63;;;21.45;100.00
49999;BME280;68071;45.062;7.356;2023-08-20T00:33:55;95581.41;;;21.36;100.00
49999;BME280;68071;45.062;7.356;2023-08-20T00:36:59;95580.16;;;21.09;100.00
49999;BME280;68071;45.062;7.356;2023-08-20T00:40:06;95578.44;;;21.12;100.00
49999;BME280;68071;45.062;7.356;2023-08-20T00:43:11;95581.41;;;20.90;100.00
49999;BME280;68071;45.062;7.356;2023-08-20T00:46:15;95581.88;;;20.97;100.00
49999;BME280;68071;45.062;7.356;2023-08-20T00:49:19;95580.16;;;21.19;100.00
49999;BME280;68071;45.062;7.356;2023-08-20T00:52:24;95577.06;;;21.07;100.00
49999;BME280;68071;45.062;7.356;2023-08-20T00:55:28;95583.75;;;21.38;100.00
49999;BME280;68071;45.062;7.356;2023-08-20T00:58:32;95579.53;;;21.42;100.00
49999;BME280;68071;45.062;7.356;2023-08-20T01:01:37;95579.69;;;21.39;100.00
49999;BME280;68071;45.062;7.356;2023-08-20T01:04:41;95572.66;;;21.34;100.00
49999;BME280;68071;45.062;7.356;2023-08-20T01:08:02;95582.50;;;21.39;100.00
49999;BME280;68071;45.062;7.356;2023-08-20T01:11:30;95582.00;;;21.78;100.00
49999;BME280;68071;45.062;7.356;2023-08-20T01:14:37;95579.97;;;21.59;100.00
49999;BME280;68071;45.062;7.356;2023-08-20T01:17:41;95585.75;;;21.84;100.00
49999;BME280;68071;45.062;7.356;2023-08-20T01:20:53;95588.84;;;21.86;100.00
49999;BME280;68071;45.062;7.356;2023-08-20T01:27:58;95588.47;;;22.12;100.00
49999;BME280;68071;45.062;7.356;2023-08-20T01:31:06;95595.22;;;22.57;100.00
49999;BME280;68071;45.062;7.356;2023-08-20T01:34:11;95594.03;;;22.30;100.00
49999;BME280;68071;45.062;7.356;2023-08-20T01:37:17;95587.47;;;22.33;100.00
49999;BME280;68071;45.062;7.356;2023-08-20T01:40:21;95590.91;;;22.28;100.00
49999;BME280;68071;45.062;7.356;2023-08-20T01:43:25;95601.84;;;21.83;100.00
49999;BME280;68071;45.062;7.356;2023-08-20T01:46:29;95602.31;;;21.54;100.00
49999;BME280;68071;45.062;7.356;2023-08-20T01:49:33;95601.41;;;21.75;100.00
49999;BME280;68071;45.062;7.356;2023-08-20T01:52:37;95600.44;;;21.60;100.00
49999;BME280;68071;45.062;7.356;2023-08-20T01:55:41;95594.50;;;21.49;100.00
49999;BME280;68071;45.062;7.356;2023-08-20T01:58:45;95605.47;;;21.37;100.00
49999;BME280;68071;45.062;7.356;2023-08-20T02:01:48;95606.72;;;21.27;100.00
49999;BME280;68071;45.062;7.356;2023-08-20T02:04:52;95609.81;;;21.29;100.00
49999;BME280;68071;45.062;7.356;2023-08-20T02:07:56;95603.59;;;21.43;100.00
49999;BME280;68071;45.062;7.356;2023-08-20T02:11:04;95618.09;;;21.42;100.00
49999;BME280;68071;45.062;7.356;2023-08-20T02:14:08;95607.94;;;21.54;100.00
49999;BME280;68071;45.062;7.356;2023-08-20T02:17:12;95616.09;;;21.80;100.00
49999;BME280;68071;45.062;7.356;2023-08-20T02:20:16;95615.13;;;21.92;100.00
49999;BME280;68071;45.062;7.356;2023-08-20T02:23:24;95609.00;;;22.03;100.00
49999;BME280;68071;45.062;7.356;2023-08-20T02:26:29;95609.84;;;21.66;100.00
49999;BME280;68071;45.062;7.356;2023-08-20T02:29:34;95615.75;;;21.87;100.00
49999;BME280;68071;45.062;7.356;2023-08-20T02:32:38;95612.63;;;21.85;100.00
49999;BME280;68071;45.062;7.356;2023-08-20T02:35:42;95611.72;;;21.60;100.00
49999;BME280;68071;45.062;7.356;2023-08-20T02:38:45;95612.16;;;21.58;100.00
49999;BME280;68071;45.062;7.356;2023-08-20T02:41:50;95603.28;;;21.60;100.00
49999;BME280;68071;45.062;7.356;2023-08-20T02:44:54;95610.91;;;21.59;100.00
49999;BME280;68071;45.062;7.356;2023-08-20T02:47:59;95603.91;;;21.73;100.00
49999;BME280;68071;45.062;7.356;2023-08-20T02:51:03;95604.84;;;21.70;100.00
49999;BME280;68071;45.062;7.356;2023-08-20T02:54:07;95593.72;;;21.76;100.00
49999;BME280;68071;45.062;7.356;2023-08-20T02:57:11;95600.00;;;21.61;100.00
49999;BME280;68071;45.062;7.356;2023-08-20T03:00:15;95595.16;;;21.62;100.00
49999;BME280;68071;45.062;7.356;2023-08-20T03:03:19;95592.00;;;21.69;100.00
49999;BME280;68071;45.062;7.356;2023-08-20T03:06:24;95596.72;;;21.44;100.00
49999;BME280;68071;45.062;7.356;2023-08-20T03:09:28;95599.84;;;21.37;100.00
49999;BME280;68071;45.062;7.356;2023-08-20T03:12:32;95599.50;;;21.54;100.00
49999;BME280;68071;45.062;7.356;2023-08-20T03:15:36;95599.34;;;21.76;100.00
49999;BME280;68071;45.062;7.356;2023-08-20T03:18:40;95598.53;;;21.85;100.00
49999;BME280;68071;45.062;7.356;2023-08-20T03:21:44;95598.16;;;22.20;100.00
49999;BME280;68071;45.062;7.356;2023-08-20T03:24:48;95593.84;;;22.00;100.00
49999;BME280;68071;45.062;7.356;2023-08-20T03:27:53;95593.59;;;21.70;100.00
49999;BME280;68071;45.062;7.356;2023-08-20T03:31:01;95599.81;;;21.56;100.00
49999;BME280;68071;45.062;7.356;2023-08-20T03:34:08;95610.94;;;21.50;100.00
49999;BME280;68071;45.062;7.356;2023-08-20T03:37:15;95603.88;;;21.55;100.00
49999;BME280;68071;45.062;7.356;2023-08-20T03:40:19;95610.13;;;21.59;100.00
49999;BME280;68071;45.062;7.356;2023-08-20T03:43:23;95609.69;;;21.51;100.00
49999;BME280;68071;45.062;7.356;2023-08-20T03:46:27;95606.41;;;21.15;100.00
49999;BME280;68071;45.062;7.356;2023-08-20T03:49:31;95617.03;;;21.21;100.00
49999;BME280;68071;45.062;7.356;2023-08-20T03:52:36;95609.84;;;21.38;100.00
49999;BME280;68071;45.062;7.356;2023-08-20T03:55:39;95600.78;;;21.43;100.00
49999;BME280;68071;45.062;7.356;2023-08-20T03:58:43;95611.25;;;21.61;100.00
49999;BME280;68071;45.062;7.356;2023-08-20T04:01:47;95613.59;;;21.44;100.00
49999;BME280;68071;45.062;7.356;2023-08-20T04:04:52;95613.13;;;21.27;100.00
49999;BME280;68071;45.062;7.356;2023-08-20T04:07:56;95612.03;;;21.34;100.00
49999;BME280;68071;45.062;7.356;2023-08-20T04:11:01;95613.59;;;21.35;100.00
49999;BME280;68071;45.062;7.356;2023-08-20T04:14:06;95617.34;;;21.41;100.00
49999;BME280;68071;45.062;7.356;2023-08-20T04:17:10;95612.50;;;21.33;100.00
49999;BME280;68071;45.062;7.356;2023-08-20T04:20:15;95615.63;;;21.25;100.00
49999;BME280;68071;45.062;7.356;2023-08-20T04:23:19;95615.16;;;21.27;100.00
49999;BME280;68071;45.062;7.356;2023-08-20T04:26:23;95618.28;;;21.38;100.00
49999;BME280;68071;45.062;7.356;2023-08-20T04:29:27;95623.28;;;21.43;100.00
49999;BME280;68071;45.062;7.356;2023-08-20T04:32:31;95624.06;;;21.16;100.00
49999;BME280;68071;45.062;7.356;2023-08-20T04:35:35;95633.09;;;21.11;100.00
49999;BME280;68071;45.062;7.356;2023-08-20T04:38:40;95629.81;;;21.12;100.00
49999;BME280;68071;45.062;7.356;2023-08-20T04:41:44;95635.63;;;21.18;100.00
49999;BME280;68071;45.062;7.356;2023-08-20T04:44:53;95637.78;;;21.14;100.00
49999;BME280;68071;45.062;7.356;2023-08-20T04:47:57;95640.88;;;21.07;100.00
49999;BME280;68071;45.062;7.356;2023-08-20T04:51:01;95640.59;;;21.23;100.00
49999;BME280;68071;45.062;7.356;2023-08-20T04:54:06;95641.84;;;21.22;100.00
49999;BME280;68071;45.062;7.356;2023-08-20T04:57:09;95649.22;;;21.38;100.00
49999;BME280;68071;45.062;7.356;2023-08-20T05:00:14;95643.91;;;21.40;100.00
49999;BME280;68071;45.062;7.356;2023-08-20T05:03:32;95643.72;;;21.25;100.00
49999;BME280;68071;45.062;7.356;2023-08-20T05:06:36;95647.00;;;21.33;100.00
49999;BME280;68071;45.062;7.356;2023-08-20T05:09:41;95647.19;;;21.48;100.00
49999;BME280;68071;45.062;7.356;2023-08-20T05:12:45;95657.31;;;21.36;100.00
49999;BME280;68071;45.062;7.356;2023-08-20T05:15:48;95656.22;;;21.43;100.00
49999;BME280;68071;45.062;7.356;2023-08-20T05:18:52;95652.63;;;21.33;100.00
49999;BME280;68071;45.062;7.356;2023-08-20T05:21:57;95660.13;;;21.36;100.00
49999;BME280;68071;45.062;7.356;2023-08-20T05:25:02;95656.41;;;21.39;100.00
49999;BME280;68071;45.062;7.356;2023-08-20T05:28:07;95662.63;;;21.34;100.00
49999;BME280;68071;45.062;7.356;2023-08-20T05:31:12;95659.22;;;21.58;100.00
49999;BME280;68071;45.062;7.356;2023-08-20T05:34:16;95660.19;;;21.64;100.00
49999;BME280;68071;45.062;7.356;2023-08-20T05:37:21;95661.72;;;21.56;100.00
49999;BME280;68071;45.062;7.356;2023-08-20T05:40:25;95661.75;;;21.65;100.00
49999;BME280;68071;45.062;7.356;2023-08-20T05:43:29;95670.47;;;21.76;100.00
49999;BME280;68071;45.062;7.356;2023-08-20T05:46:33;95677.34;;;21.75;100.00
49999;BME280;68071;45.062;7.356;2023-08-20T05:49:38;95680.31;;;21.81;100.00
49999;BME280;68071;45.062;7.356;2023-08-20T05:52:42;95683.91;;;21.91;100.00
49999;BME280;68071;45.062;7.356;2023-08-20T05:55:46;95668.88;;;22.03;100.00
49999;BME280;68071;45.062;7.356;2023-08-20T05:58:50;95663.53;;;22.15;100.00
49999;BME280;68071;45.062;7.356;2023-08-20T06:01:55;95673.88;;;22.18;100.00
49999;BME280;68071;45.062;7.356;2023-08-20T06:05:00;95674.94;;;22.30;100.00
49999;BME280;68071;45.062;7.356;2023-08-20T06:08:04;95675.50;;;22.52;100.00
49999;BME280;68071;45.062;7.356;2023-08-20T06:11:09;95669.22;;;22.58;100.00
49999;BME280;68071;45.062;7.356;2023-08-20T06:14:13;95671.97;;;22.76;100.00
49999;BME280;68071;45.062;7.356;2023-08-20T06:17:17;95673.91;;;22.94;100.00
49999;BME280;68071;45.062;7.356;2023-08-20T06:20:21;95670.69;;;23.11;100.00
49999;BME280;68071;45.062;7.356;2023-08-20T06:23:26;95681.75;;;23.24;100.00
49999;BME280;68071;45.062;7.356;2023-08-20T06:26:30;95674.66;;;23.29;100.00
49999;BME280;68071;45.062;7.356;2023-08-20T06:29:34;95684.06;;;23.50;100.00
49999;BME280;68071;45.062;7.356;2023-08-20T06:32:38;95691.13;;;23.69;100.00
49999;BME280;68071;45.062;7.356;2023-08-20T06:35:42;95688.34;;;23.84;100.00
49999;BME280;68071;45.062;7.356;2023-08-20T06:38:46;95687.34;;;24.42;100.00
49999;BME280;68071;45.062;7.356;2023-08-20T06:41:51;95684.03;;;24.58;100.00
49999;BME280;68071;45.062;7.356;2023-08-20T06:44:58;95692.91;;;24.36;100.00
49999;BME280;68071;45.062;7.356;2023-08-20T06:48:01;95695.44;;;24.19;100.00
49999;BME280;68071;45.062;7.356;2023-08-20T06:51:15;95698.38;;;24.25;100.00
49999;BME280;68071;45.062;7.356;2023-08-20T06:54:19;95698.25;;;24.79;100.00
49999;BME280;68071;45.062;7.356;2023-08-20T06:57:24;95698.97;;;25.30;100.00
49999;BME280;68071;45.062;7.356;2023-08-20T07:00:28;95703.88;;;24.94;100.00
49999;BME280;68071;45.062;7.356;2023-08-20T07:03:39;95704.56;;;24.89;100.00
49999;BME280;68071;45.062;7.356;2023-08-20T07:06:43;95706.25;;;25.16;100.00
49999;BME280;68071;45.062;7.356;2023-08-20T07:09:47;95711.09;;;25.31;100.00
49999;BME280;68071;45.062;7.356;2023-08-20T07:12:51;95706.91;;;25.26;100.00
49999;BME280;68071;45.062;7.356;2023-08-20T07:15:55;95710.38;;;25.15;100.00
49999;BME280;68071;45.062;7.356;2023-08-20T07:18:59;95709.03;;;25.31;100.00
49999;BME280;68071;45.062;7.356;2023-08-20T07:22:03;95705.91;;;25.44;98.44
49999;BME280;68071;45.062;7.356;2023-08-20T07:25:07;95708.72;;;25.86;91.71
49999;BME280;68071;45.062;7.356;2023-08-20T07:28:11;95713.16;;;26.13;89.94
49999;BME280;68071;45.062;7.356;2023-08-20T07:31:15;95714.22;;;26.42;87.78
49999;BME280;68071;45.062;7.356;2023-08-20T07:34:18;95705.94;;;26.12;91.28
49999;BME280;68071;45.062;7.356;2023-08-20T07:37:22;95714.13;;;26.31;88.68
49999;BME280;68071;45.062;7.356;2023-08-20T07:40:26;95713.06;;;26.54;86.68
49999;BME280;68071;45.062;7.356;2023-08-20T07:43:30;95721.72;;;26.45;87.10
49999;BME280;68071;45.062;7.356;2023-08-20T07:46:34;95719.25;;;26.58;84.23
49999;BME280;68071;45.062;7.356;2023-08-20T07:49:38;95719.03;;;26.88;85.83
49999;BME280;68071;45.062;7.356;2023-08-20T07:52:42;95722.44;;;26.40;88.72
49999;BME280;68071;45.062;7.356;2023-08-20T07:55:46;95718.25;;;26.62;91.13
49999;BME280;68071;45.062;7.356;2023-08-20T07:58:50;95724.22;;;26.37;91.58
49999;BME280;68071;45.062;7.356;2023-08-20T08:01:54;95719.41;;;25.96;93.30
49999;BME280;68071;45.062;7.356;2023-08-20T08:04:58;95720.16;;;26.18;92.44
49999;BME280;68071;45.062;7.356;2023-08-20T08:08:02;95719.34;;;26.38;90.82
49999;BME280;68071;45.062;7.356;2023-08-20T08:11:06;95724.91;;;26.58;87.30
49999;BME280;68071;45.062;7.356;2023-08-20T08:14:10;95730.47;;;26.73;85.79
49999;BME280;68071;45.062;7.356;2023-08-20T08:17:15;95727.22;;;26.81;84.56
49999;BME280;68071;45.062;7.356;2023-08-20T08:20:19;95730.88;;;26.61;86.08
49999;BME280;68071;45.062;7.356;2023-08-20T08:23:23;95725.94;;;26.55;85.65
49999;BME280;68071;45.062;7.356;2023-08-20T08:26:27;95735.84;;;26.98;82.11
49999;BME280;68071;45.062;7.356;2023-08-20T08:29:31;95735.50;;;26.84;83.63
49999;BME280;68071;45.062;7.356;2023-08-20T08:32:36;95721.25;;;27.11;80.08
49999;BME280;68071;45.062;7.356;2023-08-20T08:35:40;95722.66;;;26.63;87.59
49999;BME280;68071;45.062;7.356;2023-08-20T08:38:44;95720.03;;;26.59;85.75
49999;BME280;68071;45.062;7.356;2023-08-20T08:41:51;95723.41;;;26.90;86.55
49999;BME280;68071;45.062;7.356;2023-08-20T08:44:59;95730.47;;;27.06;87.50
49999;BME280;68071;45.062;7.356;2023-08-20T08:48:03;95725.63;;;27.12;84.69
49999;BME280;68071;45.062;7.356;2023-08-20T08:51:08;95721.56;;;27.24;81.57
49999;BME280;68071;45.062;7.356;2023-08-20T08:54:13;95722.56;;;27.53;77.74
49999;BME280;68071;45.062;7.356;2023-08-20T08:57:19;95723.31;;;27.54;77.58
49999;BME280;68071;45.062;7.356;2023-08-20T09:00:23;95724.78;;;27.87;76.73
49999;BME280;68071;45.062;7.356;2023-08-20T09:03:27;95715.88;;;27.56;80.44
49999;BME280;68071;45.062;7.356;2023-08-20T09:06:47;95718.16;;;27.52;76.21
49999;BME280;68071;45.062;7.356;2023-08-20T09:09:57;95721.09;;;27.69;74.86
49999;BME280;68071;45.062;7.356;2023-08-20T09:13:02;95714.16;;;27.76;77.18
49999;BME280;68071;45.062;7.356;2023-08-20T09:16:10;95720.88;;;27.84;74.36
49999;BME280;68071;45.062;7.356;2023-08-20T09:19:14;95710.84;;;27.89;76.59
49999;BME280;68071;45.062;7.356;2023-08-20T09:22:18;95709.22;;;27.76;82.50
49999;BME280;68071;45.062;7.356;2023-08-20T09:25:22;95716.97;;;27.70;79.89
49999;BME280;68071;45.062;7.356;2023-08-20T09:28:26;95705.13;;;27.83;79.54
49999;BME280;68071;45.062;7.356;2023-08-20T09:31:38;95710.94;;;28.17;76.34
49999;BME280;68071;45.062;7.356;2023-08-20T09:34:42;95708.81;;;28.06;82.35
49999;BME280;68071;45.062;7.356;2023-08-20T09:37:46;95705.94;;;27.95;80.37
49999;BME280;68071;45.062;7.356;2023-08-20T09:40:52;95699.22;;;27.92;79.94
49999;BME280;68071;45.062;7.356;2023-08-20T09:43:58;95698.44;;;27.92;81.66
49999;BME280;68071;45.062;7.356;2023-08-20T09:47:06;95694.56;;;27.89;80.13
49999;BME280;68071;45.062;7.356;2023-08-20T09:50:11;95694.56;;;27.95;86.42
49999;BME280;68071;45.062;7.356;2023-08-20T09:53:26;95692.53;;;28.07;81.12
49999;BME280;68071;45.062;7.356;2023-08-20T09:56:31;95684.47;;;27.83;86.78
49999;BME280;68071;45.062;7.356;2023-08-20T09:59:42;95689.50;;;28.22;81.57
49999;BME280;68071;45.062;7.356;2023-08-20T10:02:46;95698.31;;;28.35;75.61
49999;BME280;68071;45.062;7.356;2023-08-20T10:05:52;95681.69;;;28.05;79.79
49999;BME280;68071;45.062;7.356;2023-08-20T10:08:58;95682.81;;;28.25;85.08
49999;BME280;68071;45.062;7.356;2023-08-20T10:12:03;95694.44;;;28.33;79.79
49999;BME280;68071;45.062;7.356;2023-08-20T10:15:08;95688.50;;;28.65;78.80
49999;BME280;68071;45.062;7.356;2023-08-20T10:18:13;95692.94;;;28.83;75.03
49999;BME280;68071;45.062;7.356;2023-08-20T10:21:17;95689.84;;;28.81;77.80
49999;BME280;68071;45.062;7.356;2023-08-20T10:24:23;95682.06;;;28.76;77.70
49999;BME280;68071;45.062;7.356;2023-08-20T10:27:31;95680.75;;;28.65;83.32
49999;BME280;68071;45.062;7.356;2023-08-20T10:30:35;95683.06;;;28.50;85.37
49999;BME280;68071;45.062;7.356;2023-08-20T10:33:50;95677.66;;;28.69;83.50
49999;BME280;68071;45.062;7.356;2023-08-20T10:36:54;95677.94;;;28.82;79.66
49999;BME280;68071;45.062;7.356;2023-08-20T10:39:58;95678.19;;;29.02;75.58
49999;BME280;68071;45.062;7.356;2023-08-20T10:43:03;95675.06;;;28.43;76.67
49999;BME280;68071;45.062;7.356;2023-08-20T10:46:20;95670.91;;;28.66;81.43
49999;BME280;68071;45.062;7.356;2023-08-20T10:49:26;95668.34;;;28.97;78.44
49999;BME280;68071;45.062;7.356;2023-08-20T10:52:30;95668.81;;;28.16;81.11
49999;BME280;68071;45.062;7.356;2023-08-20T10:55:34;95659.72;;;28.00;81.74
49999;BME280;68071;45.062;7.356;2023-08-20T10:58:40;95654.38;;;28.31;82.49
49999;BME280;68071;45.062;7.356;2023-08-20T11:01:46;95657.22;;;28.76;79.83
49999;BME280;68071;45.062;7.356;2023-08-20T11:04:51;95650.69;;;29.27;78.45
49999;BME280;68071;45.062;7.356;2023-08-20T11:07:57;95643.44;;;29.37;77.49
49999;BME280;68071;45.062;7.356;2023-08-20T11:11:01;95642.09;;;29.44;77.14
49999;BME280;68071;45.062;7.356;2023-08-20T11:14:08;95645.13;;;29.69;75.76
49999;BME280;68071;45.062;7.356;2023-08-20T11:17:15;95642.81;;;29.62;75.24
49999;BME280;68071;45.062;7.356;2023-08-20T11:20:19;95637.47;;;29.35;79.01
49999;BME280;68071;45.062;7.356;2023-08-20T11:23:24;95630.94;;;29.57;77.47
49999;BME280;68071;45.062;7.356;2023-08-20T11:26:28;95628.66;;;29.33;73.93
49999;BME280;68071;45.062;7.356;2023-08-20T11:29:34;95635.88;;;29.51;79.13
49999;BME280;68071;45.062;7.356;2023-08-20T11:32:40;95634.88;;;29.37;80.00
49999;BME280;68071;45.062;7.356;2023-08-20T11:35:44;95630.34;;;29.70;78.87
49999;BME280;68071;45.062;7.356;2023-08-20T11:38:54;95626.72;;;30.17;74.96
49999;BME280;68071;45.062;7.356;2023-08-20T11:41:58;95623.78;;;29.87;78.88
49999;BME280;68071;45.062;7.356;2023-08-20T11:45:03;95621.78;;;29.76;74.91
49999;BME280;68071;45.062;7.356;2023-08-20T11:48:09;95608.63;;;29.67;75.11
49999;BME280;68071;45.062;7.356;2023-08-20T11:51:14;95604.16;;;29.78;77.35
49999;BME280;68071;45.062;7.356;2023-08-20T11:54:18;95609.53;;;29.87;75.94
49999;BME280;68071;45.062;7.356;2023-08-20T11:57:22;95604.66;;;29.82;74.74
49999;BME280;68071;45.062;7.356;2023-08-20T12:00:28;95601.75;;;29.87;75.30
49999;BME280;68071;45.062;7.356;2023-08-20T12:03:32;95600.53;;;29.77;82.71
49999;BME280;68071;45.062;7.356;2023-08-20T12:06:37;95606.63;;;29.98;72.28
49999;BME280;68071;45.062;7.356;2023-08-20T12:09:41;95600.59;;;30.13;71.32
49999;BME280;68071;45.062;7.356;2023-08-20T12:12:45;95601.31;;;30.19;71.03
49999;BME280;68071;45.062;7.356;2023-08-20T12:15:50;95605.66;;;30.26;71.84
49999;BME280;68071;45.062;7.356;2023-08-20T12:18:54;95601.75;;;30.29;66.42
49999;BME280;68071;45.062;7.356;2023-08-20T12:22:09;95595.63;;;30.50;66.74
49999;BME280;68071;45.062;7.356;2023-08-20T12:25:15;95595.91;;;30.46;66.26
49999;BME280;68071;45.062;7.356;2023-08-20T12:28:20;95596.44;;;30.14;67.37
49999;BME280;68071;45.062;7.356;2023-08-20T12:31:24;95584.81;;;30.37;70.97
49999;BME280;68071;45.062;7.356;2023-08-20T12:34:28;95587.00;;;30.86;66.54
49999;BME280;68071;45.062;7.356;2023-08-20T12:37:32;95582.53;;;31.41;63.26
49999;BME280;68071;45.062;7.356;2023-08-20T12:40:37;95582.59;;;31.10;67.13
49999;BME280;68071;45.062;7.356;2023-08-20T12:43:41;95585.69;;;30.87;65.12
49999;BME280;68071;45.062;7.356;2023-08-20T12:46:45;95576.84;;;30.91;70.74
49999;BME280;68071;45.062;7.356;2023-08-20T12:49:49;95581.28;;;30.86;67.67
49999;BME280;68071;45.062;7.356;2023-08-20T12:52:53;95574.56;;;30.59;68.24
49999;BME280;68071;45.062;7.356;2023-08-20T12:55:57;95570.53;;;30.73;65.71
49999;BME280;68071;45.062;7.356;2023-08-20T12:59:00;95575.53;;;30.92;64.42
49999;BME280;68071;45.062;7.356;2023-08-20T13:02:05;95567.78;;;31.12;66.74
49999;BME280;68071;45.062;7.356;2023-08-20T13:05:09;95571.47;;;31.31;60.92
49999;BME280;68071;45.062;7.356;2023-08-20T13:08:15;95571.03;;;32.04;58.06
49999;BME280;68071;45.062;7.356;2023-08-20T13:11:19;95570.94;;;31.52;69.83
49999;BME280;68071;45.062;7.356;2023-08-20T13:14:24;95561.72;;;31.21;60.90
49999;BME280;68071;45.062;7.356;2023-08-20T13:17:29;95568.44;;;31.23;63.80
49999;BME280;68071;45.062;7.356;2023-08-20T13:20:33;95564.28;;;31.24;61.54
49999;BME280;68071;45.062;7.356;2023-08-20T13:23:37;95561.06;;;31.09;61.87
49999;BME280;68071;45.062;7.356;2023-08-20T13:26:40;95558.44;;;31.36;62.42
49999;BME280;68071;45.062;7.356;2023-08-20T13:29:44;95550.19;;;31.90;60.74
49999;BME280;68071;45.062;7.356;2023-08-20T13:32:49;95554.13;;;31.67;61.47
49999;BME280;68071;45.062;7.356;2023-08-20T13:35:53;95552.38;;;32.16;63.55
49999;BME280;68071;45.062;7.356;2023-08-20T13:38:56;95544.97;;;32.07;63.62
49999;BME280;68071;45.062;7.356;2023-08-20T13:42:00;95541.63;;;31.71;62.47
49999;BME280;68071;45.062;7.356;2023-08-20T13:45:05;95543.75;;;32.03;59.32
49999;BME280;68071;45.062;7.356;2023-08-20T13:48:09;95547.72;;;32.32;57.85
49999;BME280;68071;45.062;7.356;2023-08-20T13:51:14;95543.25;;;32.50;56.76
49999;BME280;68071;45.062;7.356;2023-08-20T13:54:18;95547.06;;;32.39;57.15
49999;BME280;68071;45.062;7.356;2023-08-20T13:57:22;95545.31;;;31.46;62.63
49999;BME280;68071;45.062;7.356;2023-08-20T14:00:26;95535.63;;;32.39;58.21
49999;BME280;68071;45.062;7.356;2023-08-20T14:03:30;95536.13;;;31.92;57.66
49999;BME280;68071;45.062;7.356;2023-08-20T14:06:34;95538.06;;;31.64;64.40
49999;BME280;68071;45.062;7.356;2023-08-20T14:09:37;95537.84;;;32.14;62.22
49999;BME280;68071;45.062;7.356;2023-08-20T14:12:43;95541.22;;;32.32;61.03
49999;BME280;68071;45.062;7.356;2023-08-20T14:15:47;95537.28;;;31.45;63.72
49999;BME280;68071;45.062;7.356;2023-08-20T14:18:51;95541.44;;;31.24;66.02
49999;BME280;68071;45.062;7.356;2023-08-20T14:21:54;95537.06;;;30.74;67.67
49999;BME280;68071;45.062;7.356;2023-08-20T14:24:58;95530.88;;;30.39;74.51
49999;BME280;68071;45.062;7.356;2023-08-20T14:28:02;95533.56;;;30.62;74.90
49999;BME280;68071;45.062;7.356;2023-08-20T14:31:07;95534.06;;;30.85;65.95
49999;BME280;68071;45.062;7.356;2023-08-20T14:34:10;95534.41;;;30.51;74.69
49999;BME280;68071;45.062;7.356;2023-08-20T14:37:15;95526.34;;;30.25;76.42
49999;BME280;68071;45.062;7.356;2023-08-20T14:40:20;95521.19;;;30.78;71.77
49999;BME280;68071;45.062;7.356;2023-08-20T14:43:24;95521.75;;;31.21;67.13
49999;BME280;68071;45.062;7.356;2023-08-20T14:46:28;95523.53;;;31.24;63.77
49999;BME280;68071;45.062;7.356;2023-08-20T14:49:32;95518.22;;;30.90;72.77
49999;BME280;68071;45.062;7.356;2023-08-20T14:52:36;95518.72;;;30.69;80.23
49999;BME280;68071;45.062;7.356;2023-08-20T14:55:40;95515.81;;;31.19;70.15
49999;BME280;68071;45.062;7.356;2023-08-20T14:58:44;95516.44;;;31.31;73.05
49999;BME280;68071;45.062;7.356;2023-08-20T15:01:48;95521.13;;;32.05;69.65
49999;BME280;68071;45.062;7.356;2023-08-20T15:04:52;95517.16;;;32.54;66.83
49999;BME280;68071;45.062;7.356;2023-08-20T15:07:56;95516.34;;;32.86;61.51
49999;BME280;68071;45.062;7.356;2023-08-20T15:11:00;95512.00;;;32.52;61.96
49999;BME280;68071;45.062;7.356;2023-08-20T15:14:08;95517.72;;;32.66;61.94
49999;BME280;68071;45.062;7.356;2023-08-20T15:17:11;95507.81;;;32.40;63.63
49999;BME280;68071;45.062;7.356;2023-08-20T15:20:15;95502.44;;;32.17;66.82
49999;BME280;68071;45.062;7.356;2023-08-20T15:23:19;95505.53;;;32.19;70.85
49999;BME280;68071;45.062;7.356;2023-08-20T15:26:23;95515.91;;;32.82;63.43
49999;BME280;68071;45.062;7.356;2023-08-20T15:29:27;95513.56;;;33.21;57.79
49999;BME280;68071;45.062;7.356;2023-08-20T15:32:31;95516.88;;;33.11;58.03
49999;BME280;68071;45.062;7.356;2023-08-20T15:35:35;95515.63;;;33.82;58.00
49999;BME280;68071;45.062;7.356;2023-08-20T15:38:39;95519.41;;;33.90;54.36
49999;BME280;68071;45.062;7.356;2023-08-20T15:41:44;95517.50;;;34.56;54.46
49999;BME280;68071;45.062;7.356;2023-08-20T15:44:53;95518.13;;;34.20;55.37
49999;BME280;68071;45.062;7.356;2023-08-20T15:47:57;95517.78;;;34.02;52.72
49999;BME280;68071;45.062;7.356;2023-08-20T15:51:00;95515.97;;;34.34;54.41
49999;BME280;68071;45.062;7.356;2023-08-20T15:54:04;95525.63;;;34.94;50.83
49999;BME280;68071;45.062;7.356;2023-08-20T15:57:09;95517.47;;;34.77;52.29
49999;BME280;68071;45.062;7.356;2023-08-20T16:00:13;95518.00;;;32.95;60.01
49999;BME280;68071;45.062;7.356;2023-08-20T16:03:19;95515.63;;;33.82;54.83
49999;BME280;68071;45.062;7.356;2023-08-20T16:06:24;95517.97;;;34.68;49.88
49999;BME280;68071;45.062;7.356;2023-08-20T16:09:27;95532.59;;;35.43;49.56
49999;BME280;68071;45.062;7.356;2023-08-20T16:12:31;95521.75;;;33.99;57.14
49999;BME280;68071;45.062;7.356;2023-08-20T16:15:36;95517.53;;;33.17;61.47
49999;BME280;68071;45.062;7.356;2023-08-20T16:18:40;95520.81;;;33.22;55.25